Date,TemperatureHighF,TemperatureAvgF,TemperatureLowF,DewpointHighF,DewpointAvgF,DewpointLowF,HumidityHigh,HumidityAvg,HumidityLow,PressureMaxIn,PressureMinIn,WindSpeedMaxMPH,WindSpeedAvgMPH,GustSpeedMaxMPH,PrecipitationSumIn
2013-1-1,39,35,30,28,25,20,83,68,49,29.99,29.89,8,2,18,0.00
2013-1-2,33,29,21,26,17,9,79,62,39,30.21,29.97,6,2,13,0.00
2013-1-3,38,25,14,19,14,10,88,65,38,30.23,30.13,10,2,21,0.00
2013-1-4,36,32,28,18,16,14,60,53,45,30.20,30.11,11,5,28,0.00
2013-1-5,43,32,26,25,18,14,82,58,32,30.36,30.14,8,2,22,0.00
2013-1-6,41,35,27,28,25,23,86,69,50,30.15,30.00,7,2,15,0.00
2013-1-7,40,32,19,27,22,16,87,66,47,30.43,30.14,8,2,20,0.00
2013-1-8,52,27,15,30,20,12,91,78,29,30.41,30.31,5,0,12,0.00
2013-1-9,58,36,22,43,28,20,94,77,48,30.42,30.21,10,2,26,0.00
2013-1-10,52,40,29,31,27,24,85,60,36,30.58,30.42,5,2,16,0.00
2013-1-11,50,39,30,45,34,27,94,84,53,30.42,30.04,15,2,24,0.02
2013-1-12,68,47,37,51,42,36,98,85,50,30.12,30.03,5,1,8,0.00
2013-1-13,58,47,38,50,44,36,98,90,72,30.04,29.89,4,1,8,0.00
2013-1-14,55,46,35,54,39,29,97,78,59,30.28,29.89,10,2,17,0.25
2013-1-15,37,34,31,33,31,29,94,89,77,30.32,30.10,3,1,7,0.56
2013-1-16,37,34,31,36,33,29,95,94,92,30.11,29.79,12,2,22,0.27
2013-1-17,39,35,30,36,27,20,96,74,51,30.11,29.97,5,1,12,0.00
2013-1-18,37,29,22,24,13,4,78,53,27,30.48,30.09,7,3,23,0.00
2013-1-19,57,36,20,25,18,11,90,56,17,30.32,29.88,13,3,24,0.00
2013-1-20,50,38,24,27,16,0,76,45,14,30.05,29.78,14,4,37,0.00
2013-1-21,43,27,18,18,12,4,80,57,21,30.05,29.78,10,2,25,0.00
2013-1-22,21,14,9,4,-7,-12,54,39,27,30.28,29.96,11,4,31,0.00
2013-1-23,21,15,9,10,-4,-9,75,44,27,30.33,30.09,11,2,29,0.00
2013-1-24,16,15,14,11,10,10,84,81,76,30.12,30.05,2,0,5,0.01
2013-1-25,20,13,4,15,7,-1,84,75,45,30.52,30.04,11,1,19,0.05
2013-1-26,34,24,13,21,16,9,88,72,57,30.44,30.05,5,2,17,0.00
2013-1-27,38,27,17,21,14,9,80,60,40,30.57,30.39,4,1,9,0.00
2013-1-28,50,35,27,45,31,18,96,88,69,30.40,30.02,7,1,11,0.08
2013-1-29,70,51,40,55,46,38,98,84,49,30.08,29.88,11,2,19,0.00
2013-1-30,69,53,38,56,49,37,99,88,62,29.88,29.21,21,4,43,1.07
2013-1-31,51,33,26,50,20,7,96,59,44,29.85,29.13,14,7,36,0.09
2013-2-1,26,18,8,20,5,-3,85,55,37,30.37,29.78,9,3,25,0.00
2013-2-2,28,16,4,19,8,-1,84,70,43,30.37,29.99,9,2,19,0.00
2013-2-3,32,26,22,24,18,7,90,72,47,29.99,29.78,10,2,24,0.00
2013-2-4,36,26,20,25,14,6,90,60,41,30.05,29.85,7,2,22,0.02
2013-2-5,37,30,24,34,28,21,94,92,89,29.89,29.81,4,0,7,0.00
2013-2-6,35,27,24,24,21,20,84,79,61,30.31,30.18,5,0,11,0.00
2013-2-7,34,34,33,24,23,22,68,63,62,30.22,30.15,3,1,9,0.00
2013-2-8,37,32,31,31,26,21,84,77,60,30.01,29.77,10,2,24,0.00
2013-2-10,41,39,14,16,14,10,87,38,31,30.42,30.15,12,9,20,0.00
2013-2-11,65,46,34,45,37,30,91,75,33,30.06,29.67,14,5,30,0.00
2013-2-12,54,45,27,22,20,16,76,42,23,29.94,29.87,5,3,14,0.00
2013-2-13,41,40,37,30,24,22,76,54,47,29.71,29.63,6,4,13,0.00
2013-2-14,44,42,38,28,26,25,65,52,47,29.97,29.93,8,5,17,0.00
2013-2-15,49,48,48,28,28,28,46,45,44,29.94,29.93,2,2,7,0.00
2013-2-16,32,27,22,19,11,7,66,50,44,29.94,29.86,4,2,12,0.00
2013-2-17,25,21,18,10,5,0,64,50,38,30.22,29.86,10,4,28,0.00
2013-2-18,45,26,9,20,8,2,77,51,22,30.36,30.04,8,2,15,0.00
2013-2-19,52,39,27,35,24,14,84,58,38,30.04,29.64,15,7,28,0.02
2013-2-20,33,26,19,15,9,5,54,48,37,30.17,29.83,12,6,33,0.00
2013-2-21,33,23,19,14,9,4,76,57,41,30.33,30.13,7,3,20,0.00
2013-2-22,33,27,20,25,20,14,79,72,57,30.34,30.10,7,1,14,0.00
2013-2-23,51,36,28,35,28,24,86,74,52,30.10,29.80,6,1,11,0.00
2013-2-24,46,33,25,30,22,13,93,66,32,30.11,29.80,11,2,25,0.00
2013-2-25,42,28,20,20,16,14,83,63,35,30.21,30.11,5,1,13,0.00
2013-2-26,36,28,20,34,25,15,95,85,58,30.17,29.63,7,2,16,0.52
2013-2-27,48,38,32,39,31,28,97,78,46,29.67,29.57,12,2,26,0.01
2013-2-28,38,35,33,31,24,20,88,63,51,29.73,29.61,9,3,26,0.00
2013-3-1,38,33,29,25,22,18,71,63,50,29.90,29.73,6,2,21,0.00
2013-3-2,32,28,25,19,16,14,73,62,51,29.89,29.82,6,2,18,0.00
2013-3-3,34,28,24,16,13,10,66,55,43,29.95,29.84,7,3,21,0.00
2013-3-4,39,28,21,15,11,7,75,49,28,30.06,29.94,9,3,24,0.00
2013-3-5,51,35,21,28,17,9,88,54,20,30.05,29.73,7,2,21,0.11
2013-3-6,36,32,29,31,28,25,95,87,65,30.04,29.66,5,1,13,0.77
2013-3-7,41,36,33,26,24,22,73,61,49,30.19,30.03,7,2,20,0.00
2013-3-8,40,33,24,25,22,20,84,64,51,30.34,30.18,8,3,22,0.00
2013-3-9,55,33,17,29,21,14,90,68,22,30.40,30.24,3,0,7,0.00
2013-3-10,61,41,23,31,25,20,90,60,25,30.28,30.13,10,3,20,0.00
2013-3-11,57,51,33,44,29,11,81,47,18,30.12,29.77,14,7,27,0.00
2013-3-12,56,46,37,48,36,23,93,69,48,29.96,29.68,17,5,29,0.23
2013-3-13,42,33,25,27,20,12,87,61,33,30.07,29.88,12,4,24,0.00
2013-3-14,40,32,25,17,13,9,69,47,31,30.17,30.06,10,4,30,0.00
2013-3-15,55,39,22,31,22,13,81,54,33,30.09,29.78,12,3,28,0.00
2013-3-16,54,40,32,40,34,27,90,80,58,29.87,29.58,7,1,13,0.00
2013-3-17,36,34,31,32,26,20,91,73,58,30.21,29.87,6,1,10,0.00
2013-3-18,33,30,28,29,26,21,91,86,60,30.23,29.84,5,1,21,0.33
2013-3-19,52,39,30,34,20,1,94,55,15,29.93,29.73,21,5,40,0.00
2013-3-20,47,36,25,26,11,5,85,38,20,29.95,29.75,15,5,29,0.00
2013-3-21,30,25,21,25,11,3,83,54,36,29.90,29.77,11,3,24,0.00
2013-3-22,43,31,22,16,12,7,75,47,27,30.00,29.88,9,3,22,0.00
2013-3-23,50,32,16,24,16,12,88,57,22,30.03,29.92,10,2,20,0.00
2013-3-24,37,28,20,27,21,16,92,76,43,29.98,29.60,7,1,11,0.10
2013-3-25,40,32,28,32,29,27,94,88,68,29.68,29.49,5,0,9,0.32
2013-3-26,43,35,29,29,26,22,93,70,44,30.02,29.69,6,2,18,0.00
2013-3-27,41,35,29,28,24,20,75,62,49,30.12,30.01,7,3,21,0.00
2013-3-28,44,38,34,29,24,21,65,56,46,30.22,30.08,8,3,24,0.00
2013-3-29,52,41,32,30,25,17,81,56,26,30.24,30.13,8,2,22,0.00
2013-3-30,57,40,25,28,22,15,87,56,19,30.23,30.06,8,1,16,0.00
2013-3-31,46,38,30,44,34,23,94,87,73,30.06,29.72,6,0,10,0.10
2013-4-1,55,40,31,41,29,13,97,69,35,29.97,29.73,13,3,26,0.00
2013-4-2,43,34,26,18,11,5,65,40,22,30.16,29.97,9,3,20,0.00
2013-4-3,46,32,18,20,12,5,84,50,19,30.38,30.16,9,2,26,0.00
2013-4-4,48,33,16,24,13,4,82,50,20,30.38,30.01,9,4,20,0.00
2013-4-5,61,45,32,34,24,17,86,49,21,30.06,29.83,8,2,21,0.00
2013-4-6,57,40,21,26,17,7,84,46,14,30.29,30.06,9,2,17,0.00
2013-4-7,69,53,37,40,32,18,73,46,30,30.15,29.89,12,6,23,0.00
2013-4-8,76,59,41,44,40,36,87,54,26,30.03,29.86,11,3,22,0.00
2013-4-9,82,64,46,52,46,41,85,56,27,30.04,29.88,10,3,29,0.00
2013-4-10,86,67,46,55,48,43,91,57,24,29.93,29.73,13,3,26,0.00
2013-4-11,81,67,48,55,50,44,92,58,34,29.85,29.62,8,3,17,0.00
2013-4-12,75,60,48,61,47,32,96,66,29,29.77,29.50,8,4,22,0.86
2013-4-13,65,53,41,34,29,19,66,42,20,29.93,29.76,14,5,26,0.00
2013-4-14,67,49,32,41,33,27,91,58,27,30.11,29.93,8,2,13,0.00
2013-4-15,63,55,48,48,44,40,83,67,48,30.18,30.03,11,4,22,0.00
2013-4-16,77,64,54,58,52,47,82,66,45,30.18,30.01,12,7,22,0.17
2013-4-17,74,62,52,59,55,50,97,80,54,30.15,30.05,8,2,15,0.10
2013-4-18,74,65,58,60,55,51,88,71,53,30.14,29.86,14,6,28,0.00
2013-4-19,71,63,48,60,52,33,89,67,54,29.86,29.50,18,9,38,0.52
2013-4-20,55,46,35,33,24,17,70,43,25,30.34,29.76,11,4,27,0.00
2013-4-21,54,38,25,30,23,15,91,59,23,30.55,30.34,8,2,15,0.00
2013-4-22,54,40,26,32,26,21,88,61,32,30.52,30.34,10,3,18,0.00
2013-4-23,62,45,27,42,34,25,93,69,43,30.36,30.06,9,2,15,0.00
2013-4-24,75,54,33,57,43,31,95,71,38,30.06,29.70,16,4,29,0.08
2013-4-25,62,49,39,35,27,12,66,45,15,30.28,30.04,10,3,21,0.00
2013-4-26,64,48,34,36,31,26,88,58,25,30.44,30.28,7,2,28,0.00
2013-4-27,69,51,31,42,35,28,93,60,28,30.38,30.20,9,2,24,0.00
2013-4-28,54,47,37,49,42,34,93,83,70,30.20,30.05,9,2,21,0.24
2013-4-29,62,55,49,52,48,42,91,78,68,30.06,29.96,8,2,15,0.00
2013-4-30,60,54,51,53,50,47,91,86,70,30.25,30.04,8,2,15,0.01
2013-5-1,68,56,43,49,39,21,91,59,20,30.35,30.24,9,2,17,0.00
2013-5-2,68,51,33,45,38,31,93,65,28,30.38,30.27,10,2,18,0.00
2013-5-3,65,49,34,47,40,32,94,74,43,30.33,30.21,12,3,31,0.00
2013-5-4,64,50,33,44,38,30,93,67,39,30.27,30.11,13,3,22,0.00
2013-5-5,62,48,32,42,36,30,95,67,37,30.17,30.07,10,3,18,0.00
2013-5-6,55,48,38,53,45,35,94,90,83,30.13,30.00,6,2,13,0.06
2013-5-7,58,56,52,56,54,50,96,94,89,30.00,29.87,11,4,29,1.06
2013-5-8,66,53,46,55,49,44,97,86,57,29.97,29.88,7,1,19,0.20
2013-5-9,70,56,43,61,50,42,98,83,49,29.99,29.87,6,1,19,0.24
2013-5-10,80,60,47,62,54,45,98,81,36,29.99,29.81,12,2,23,0.42
2013-5-11,70,61,55,63,55,48,98,83,54,29.81,29.69,9,2,18,0.21
2013-5-12,57,50,37,48,32,19,90,52,26,30.01,29.73,9,3,26,0.00
2013-5-13,53,43,33,32,26,16,89,56,25,30.16,30.00,10,3,24,0.00
2013-5-14,62,46,27,44,32,22,93,64,27,30.18,29.97,6,1,15,0.00
2013-5-15,89,66,41,58,46,38,94,56,22,29.98,29.66,13,4,28,0.00
2013-5-16,76,69,56,58,52,44,83,57,32,29.92,29.72,11,4,33,0.00
2013-5-17,79,64,46,58,51,44,96,69,32,30.06,29.91,6,1,9,0.00
2013-5-18,66,60,52,58,55,50,95,84,70,30.14,30.05,7,1,12,0.00
2013-5-19,68,61,56,61,57,54,93,86,72,30.14,30.01,6,1,12,0.00
2013-5-20,81,69,57,66,61,56,96,79,51,30.06,29.90,7,1,12,0.00
2013-5-21,86,72,57,67,61,55,97,73,38,29.94,29.78,6,1,11,0.00
2013-5-22,84,68,58,64,60,54,96,79,36,29.87,29.77,11,2,23,0.27
2013-5-23,78,66,60,65,60,55,97,83,48,29.82,29.68,10,2,16,0.05
2013-5-24,60,50,42,58,39,28,93,67,44,30.19,29.72,7,3,23,0.00
2013-5-25,61,49,37,37,31,26,71,51,31,30.23,30.13,8,3,26,0.00
2013-5-26,68,51,34,39,32,22,92,55,18,30.23,30.13,8,2,20,0.00
2013-5-27,63,51,34,51,42,31,93,72,46,30.26,30.14,6,1,10,0.00
2013-5-28,50,50,49,47,47,46,88,88,88,30.16,30.15,0,0,1,0.00
2013-5-29,86,70,55,64,58,54,97,70,34,30.08,30.02,11,2,23,0.00
2013-5-30,88,72,55,66,60,53,96,70,36,30.15,30.05,7,1,13,0.00
2013-5-31,87,71,53,61,56,50,96,65,29,30.10,29.95,8,2,17,0.00
2013-6-1,87,73,60,65,60,57,93,67,37,29.99,29.83,10,3,18,0.00
2013-6-2,80,72,65,64,62,60,86,71,52,29.83,29.77,7,3,12,0.02
2013-6-3,74,65,54,62,58,50,95,78,57,29.96,29.80,7,1,15,0.01
2013-6-4,74,58,42,50,44,37,95,65,30,30.11,29.96,7,1,13,0.00
2013-6-5,77,61,44,57,50,42,96,72,43,30.13,29.97,9,2,20,0.00
2013-6-6,63,61,58,60,57,54,96,88,81,29.98,29.79,3,0,7,0.80
2013-6-7,66,63,61,64,62,59,97,95,92,29.79,29.63,3,0,8,0.17
2013-6-8,77,64,55,62,58,53,96,81,50,30.07,29.73,7,1,10,0.01
2013-6-9,75,65,54,65,59,53,96,82,61,30.14,30.03,6,1,13,0.00
2013-6-10,65,64,63,63,62,62,96,95,92,30.04,29.93,1,0,4,0.24
2013-6-11,76,67,56,64,59,55,98,78,56,29.83,29.75,8,2,20,0.00
2013-6-12,84,72,60,68,62,57,95,73,44,29.85,29.74,8,1,22,0.00
2013-6-13,79,66,63,65,60,51,94,82,58,29.75,29.46,11,4,29,0.89
2013-6-14,76,65,55,55,51,47,85,62,38,29.98,29.64,6,2,17,0.00
2013-6-15,80,64,50,56,50,41,95,68,27,30.07,29.96,6,1,16,0.00
2013-6-16,76,66,54,62,57,51,92,74,54,30.01,29.86,8,3,17,0.00
2013-6-17,84,70,58,66,61,56,95,76,47,29.92,29.83,6,1,12,0.00
2013-6-18,72,66,61,65,62,60,96,88,75,29.88,29.76,5,1,13,0.56
2013-6-19,74,64,56,61,58,53,96,81,53,30.11,29.86,6,1,13,0.01
2013-6-20,78,66,56,64,59,53,96,80,54,30.19,30.10,8,2,16,0.00
2013-6-21,80,68,55,66,60,53,97,77,55,30.22,30.16,6,2,14,0.00
2013-6-22,85,70,55,66,59,53,96,72,41,30.19,30.06,8,2,15,0.00
2013-6-23,85,70,57,66,62,56,96,77,43,30.14,30.02,5,1,9,0.00
2013-6-24,85,73,62,68,64,58,92,74,44,30.11,30.02,7,2,13,0.00
2013-6-25,88,74,61,68,63,56,95,71,41,30.04,29.89,7,2,18,0.00
2013-6-26,82,70,60,68,63,57,94,79,55,29.91,29.78,9,2,18,0.00
2013-6-27,79,72,60,70,64,58,97,77,62,29.80,29.59,9,2,17,0.01
2013-6-28,82,70,61,69,62,57,96,78,51,29.58,29.45,7,2,26,0.08
2013-6-29,83,70,60,66,58,54,90,69,39,29.67,29.47,7,2,17,0.00
2013-6-30,84,69,59,67,62,57,96,82,46,29.80,29.66,7,1,15,0.26
2013-7-1,81,71,64,68,65,63,97,84,59,29.91,29.78,7,1,17,0.02
2013-7-2,81,72,64,68,64,62,96,79,59,30.09,29.90,10,4,22,0.00
2013-7-3,82,73,69,70,65,63,89,78,62,30.16,30.08,8,4,16,0.01
2013-7-4,85,74,64,72,66,62,97,77,52,30.18,30.09,11,3,21,0.09
2013-7-5,86,75,63,70,65,61,97,74,49,30.15,30.06,10,3,20,0.00
2013-7-6,89,76,63,67,64,61,95,71,41,30.15,30.01,8,2,16,0.00
2013-7-7,87,71,63,69,64,60,95,81,49,30.06,29.94,10,1,19,0.61
2013-7-8,84,71,62,67,62,59,97,78,42,30.09,30.00,7,2,16,0.00
2013-7-9,84,71,64,70,65,61,96,83,55,30.07,29.94,9,2,16,0.01
2013-7-10,85,76,68,71,67,61,92,76,56,29.96,29.79,9,3,15,0.04
2013-7-11,79,71,63,68,63,61,94,78,59,29.93,29.81,5,1,13,0.97
2013-7-12,68,64,61,65,62,60,98,94,87,30.04,29.90,5,0,9,0.52
2013-7-13,80,70,64,69,65,63,97,85,63,30.20,30.03,7,1,11,0.00
2013-7-14,84,74,65,70,65,62,98,77,49,30.29,30.20,9,2,18,0.00
2013-7-15,91,75,60,72,65,59,97,74,43,30.29,30.17,6,1,12,0.00
2013-7-16,90,83,72,72,70,67,90,67,49,30.24,30.15,7,2,13,0.00
2013-7-17,90,77,66,72,69,65,97,77,49,30.21,30.06,6,1,11,0.00
2013-7-18,92,79,67,74,69,65,96,75,46,30.10,29.96,6,1,11,0.00
2013-7-19,91,76,67,74,68,63,96,77,49,29.98,29.83,11,2,21,0.00
2013-7-20,89,76,66,70,66,63,94,74,45,29.87,29.75,8,2,17,0.00
2013-7-21,83,71,63,70,64,61,96,81,55,29.91,29.84,10,1,19,0.00
2013-7-22,84,71,62,72,66,61,97,85,55,29.91,29.71,7,1,12,2.43
2013-7-23,84,73,66,70,65,59,99,80,47,29.72,29.62,6,1,15,0.10
2013-7-24,76,67,56,66,59,53,97,77,50,29.91,29.64,7,2,15,0.00
2013-7-25,75,62,52,57,53,50,97,75,44,30.04,29.91,7,1,12,0.00
2013-7-26,80,64,47,60,53,46,96,71,38,30.08,29.97,4,1,10,0.00
2013-7-27,73,65,56,67,61,55,97,88,68,29.99,29.84,8,2,16,0.03
2013-7-28,83,70,58,65,60,55,96,75,41,29.98,29.81,8,1,16,0.00
2013-7-29,75,63,49,56,52,47,96,71,38,30.15,29.97,6,1,13,0.00
2013-7-30,79,65,50,62,55,49,96,74,43,30.20,30.10,5,1,10,0.00
2013-7-31,78,65,55,66,59,53,96,83,55,30.12,29.93,5,1,12,0.00
2013-8-1,81,69,62,66,62,59,94,79,52,29.94,29.77,7,1,17,0.26
2013-8-2,81,68,56,65,58,51,98,75,37,29.93,29.84,7,1,20,0.00
2013-8-3,71,63,58,66,61,56,97,93,75,29.93,29.89,5,0,10,0.41
2013-8-4,76,64,54,62,55,47,98,78,40,30.02,29.92,6,1,18,0.00
2013-8-5,77,62,48,60,52,46,97,74,39,30.09,29.96,5,1,10,0.00
2013-8-6,77,65,56,65,60,53,97,85,60,29.99,29.94,6,1,11,0.45
2013-8-7,82,67,60,70,64,59,97,89,61,30.00,29.92,7,2,14,1.57
2013-8-8,80,70,64,72,67,64,98,91,69,29.96,29.89,5,1,11,0.25
2013-8-9,80,73,68,72,68,66,98,87,67,29.93,29.84,8,2,13,0.09
2013-8-10,80,70,63,68,64,60,98,83,52,30.04,29.93,4,0,9,0.01
2013-8-11,63,62,61,60,60,60,94,92,91,30.04,30.03,0,0,0,0.00
2013-8-14,69,60,48,54,48,44,91,67,45,30.09,29.83,7,2,18,0.00
2013-8-15,73,58,43,54,48,42,96,74,39,30.17,30.06,5,1,9,0.00
2013-8-16,76,61,46,59,51,44,96,74,39,30.16,30.08,8,1,16,0.00
2013-8-17,75,61,46,61,53,44,97,78,51,30.24,30.16,7,1,15,0.00
2013-8-18,67,61,58,59,58,56,95,89,72,30.22,30.13,4,0,8,0.30
2013-8-19,79,65,58,69,61,57,98,87,62,30.14,30.00,4,0,9,0.01
2013-8-20,81,68,60,66,61,59,98,80,49,30.15,30.05,5,1,11,0.00
2013-8-21,83,69,58,70,64,57,97,84,56,30.16,30.01,4,1,9,0.00
2013-8-22,82,71,62,67,63,60,97,79,50,30.05,29.91,5,1,11,0.00
2013-8-23,71,63,57,65,61,55,98,92,71,30.10,29.91,6,0,13,1.20
2013-8-24,78,63,54,63,56,49,98,82,43,30.30,30.10,5,1,10,0.00
2013-8-25,80,63,48,62,55,47,97,78,42,30.37,30.21,4,1,9,0.00
2013-8-26,82,67,54,66,58,52,96,76,43,30.24,29.98,7,2,16,0.00
2013-8-27,80,71,61,69,65,59,97,82,62,29.98,29.86,6,1,13,0.00
2013-8-28,76,69,65,71,67,63,97,93,79,29.89,29.73,7,1,14,0.52
2013-8-29,69,69,68,68,68,67,98,97,96,29.94,29.81,2,0,5,0.00
2013-8-30,85,71,61,70,64,60,98,81,51,29.98,29.80,5,2,10,0.00
2013-8-31,85,73,64,69,65,62,98,79,49,29.82,29.73,6,2,11,0.00
2013-9-1,85,70,60,68,64,59,98,84,51,29.80,29.72,10,1,21,0.01
2013-9-2,85,73,65,71,66,62,98,81,51,29.77,29.68,6,1,13,0.01
2013-9-3,79,68,54,63,57,51,96,73,39,29.96,29.72,6,1,14,0.01
2013-9-4,79,62,50,60,54,48,98,76,43,30.07,29.96,6,1,11,0.00
2013-9-5,78,62,50,61,53,49,98,76,42,30.12,30.01,7,1,17,0.00
2013-9-6,73,57,44,52,47,43,97,75,38,30.24,30.09,5,1,9,0.00
2013-9-7,81,60,43,58,50,42,97,74,31,30.12,29.91,8,1,11,0.00
2013-9-8,83,67,53,66,59,51,96,78,49,30.00,29.84,4,1,11,0.00
2013-9-9,78,66,58,63,56,46,94,72,54,30.13,30.00,7,1,15,0.00
2013-9-10,88,72,59,72,65,58,98,79,50,30.12,30.02,7,2,12,0.00
2013-9-11,88,74,63,72,66,61,97,80,49,30.11,29.95,7,1,16,0.02
2013-9-12,87,72,62,70,63,58,98,77,46,29.97,29.70,8,2,20,0.01
2013-9-13,71,62,52,60,52,43,94,72,42,29.94,29.70,5,1,18,0.03
2013-9-14,65,51,40,47,42,38,95,75,43,30.15,29.94,5,1,11,0.00
2013-9-15,75,56,40,59,48,38,97,77,45,30.18,30.02,5,1,12,0.00
2013-9-16,68,58,51,56,52,49,95,84,55,30.21,29.98,7,1,16,0.02
2013-9-17,66,52,39,50,43,31,96,75,27,30.39,30.21,6,1,13,0.00
2013-9-18,70,49,34,49,41,32,96,78,42,30.30,30.13,8,1,14,0.01
2013-9-19,74,56,44,59,50,42,97,83,52,30.15,30.02,4,0,9,0.00
2013-9-20,80,63,49,62,56,47,98,80,51,30.04,29.86,8,1,13,0.00
2013-9-21,69,61,55,62,58,53,97,89,74,29.86,29.62,10,3,20,0.54
2013-9-22,68,56,46,56,48,42,98,78,42,29.94,29.71,5,1,13,0.00
2013-9-23,63,50,40,47,42,37,95,77,46,30.08,29.94,6,1,15,0.00
2013-9-24,70,49,36,50,42,34,98,79,38,30.10,29.93,6,1,12,0.00
2013-9-25,72,53,39,52,44,37,98,77,35,29.97,29.85,5,1,10,0.00
2013-9-26,73,54,41,51,45,39,97,75,30,30.05,29.91,6,1,12,0.00
2013-9-27,72,53,39,53,46,38,97,79,42,30.19,30.05,7,1,14,0.00
2013-9-28,63,51,41,55,46,40,98,83,56,30.27,30.19,5,1,10,0.00
2013-9-29,71,52,39,51,44,38,98,77,42,30.19,30.01,6,1,10,0.00
2013-9-30,75,56,39,58,48,38,97,78,37,30.05,29.94,4,1,9,0.00
2013-10-1,77,63,52,57,54,50,96,76,42,30.04,29.94,5,1,14,0.00
2013-10-2,81,62,46,60,52,45,98,76,38,30.06,29.98,6,1,15,0.00
2013-10-3,61,53,50,59,51,48,97,94,92,30.09,30.04,3,0,7,0.00
2013-10-4,83,66,54,63,57,52,97,77,43,30.06,29.97,5,1,11,0.00
2013-10-5,84,68,56,65,59,55,98,76,43,30.06,29.94,6,1,12,0.00